Time;durP1;ratioP1;P1;durP2;ratioP2;P2;SDS_P1;SDS_P2;PMS_P1;PMS_P2;Temp;Humidity;BMP_temperature;BMP_pressure;BME280_temperature;BME280_humidity;BME280_pressure;Samples;Min_cycle;Max_cycle;Signal;HPM_P1;HPM_P2
2022/09/13 00:01:47;;;;;;;2.83;2.30;;;14.80;99.90;;;;;;5001021;28;20183;-88
2022/09/13 00:04:13;;;;;;;2.60;2.37;;;14.70;99.90;;;;;;5000810;28;20213;-88
2022/09/13 00:06:39;;;;;;;2.40;2.13;;;14.70;99.90;;;;;;5000738;28;20198;-91
2022/09/13 00:09:05;;;;;;;2.00;1.90;;;14.70;99.90;;;;;;5000961;28;20178;-88
2022/09/13 00:11:31;;;;;;;2.40;2.20;;;14.60;99.90;;;;;;5000853;28;20235;-88
2022/09/13 00:13:58;;;;;;;5.03;2.00;;;14.60;99.90;;;;;;5000932;28;20289;-88
2022/09/13 00:16:25;;;;;;;2.40;2.20;;;14.50;99.90;;;;;;4999718;28;20185;-88
2022/09/13 00:18:53;;;;;;;2.47;2.27;;;14.40;99.90;;;;;;5001514;28;20211;-87
2022/09/13 00:21:20;;;;;;;2.43;2.23;;;14.30;99.90;;;;;;5001725;28;20190;-88
2022/09/13 00:23:48;;;;;;;2.83;2.27;;;14.20;99.90;;;;;;5016239;28;20229;-88
2022/09/13 00:26:18;;;;;;;2.70;2.50;;;14.10;99.90;;;;;;4997612;28;20189;-88
2022/09/13 00:28:45;;;;;;;2.70;2.50;;;13.90;99.90;;;;;;4997043;28;20186;-88
2022/09/13 00:31:11;;;;;;;2.50;2.30;;;13.90;99.90;;;;;;4981014;28;20559;-88
2022/09/13 00:33:37;;;;;;;2.30;2.10;;;13.80;99.90;;;;;;4981184;28;20195;-88
2022/09/13 00:36:08;;;;;;;2.70;2.50;;;13.90;99.90;;;;;;4998990;28;20186;-87
2022/09/13 00:38:39;;;;;;;2.47;2.27;;;13.90;99.90;;;;;;5000543;28;20277;-87
2022/09/13 00:41:08;;;;;;;2.67;2.27;;;13.80;99.90;;;;;;4982464;28;20180;-88
2022/09/13 00:43:41;;;;;;;3.00;2.70;;;13.70;99.90;;;;;;4996832;28;20270;-88
2022/09/13 00:46:07;;;;;;;3.00;2.70;;;13.80;99.90;;;;;;4997246;28;20186;-87
2022/09/13 00:48:35;;;;;;;3.97;2.30;;;13.80;99.90;;;;;;5010677;28;20240;-88
2022/09/13 00:51:02;;;;;;;2.87;2.60;;;13.90;99.90;;;;;;5000201;28;20257;-87
2022/09/13 00:53:32;;;;;;;4.20;2.53;;;13.90;99.90;;;;;;5016942;28;20185;-87
2022/09/13 00:56:50;;;;;;;3.90;2.83;;;13.90;99.90;;;;;;5016071;28;20226;-88
2022/09/13 00:59:22;;;;;;;2.67;2.47;;;13.90;99.90;;;;;;4997203;28;20183;-88
2022/09/13 01:01:53;;;;;;;3.37;2.67;;;14.00;99.90;;;;;;4997096;28;20167;-88
2022/09/13 01:04:20;;;;;;;3.63;2.47;;;14.00;99.90;;;;;;5013048;28;20203;-88
2022/09/13 01:06:48;;;;;;;3.03;2.30;;;14.00;99.90;;;;;;5012939;28;20675;-88
2022/09/13 01:09:14;;;;;;;2.57;2.37;;;13.90;99.90;;;;;;4998713;28;20176;-88
2022/09/13 01:12:22;;;;;;;3.03;2.70;;;13.90;99.90;;;;;;4999727;28;20200;-88
2022/09/13 01:14:49;;;;;;;2.43;2.23;;;13.90;99.90;;;;;;5000111;28;20199;-87
2022/09/13 01:17:15;;;;;;;4.40;2.77;;;13.80;99.90;;;;;;5004506;28;20193;-87
2022/09/13 01:19:44;;;;;;;2.87;2.67;;;13.80;99.90;;;;;;5019496;28;20174;-87
2022/09/13 01:22:37;;;;;;;2.77;2.53;;;13.70;99.90;;;;;;5019450;28;20216;-88
2022/09/13 01:25:15;;;;;;;4.03;2.40;;;13.70;99.90;;;;;;5019161;28;20212;-88
2022/09/13 01:28:03;;;;;;;3.03;2.70;;;13.70;99.90;;;;;;5018712;28;20197;-88
2022/09/13 01:30:42;;;;;;;3.60;2.87;;;13.60;99.90;;;;;;5005037;28;20189;-87
2022/09/13 01:33:15;;;;;;;3.87;2.83;;;13.60;99.90;;;;;;4999519;28;20166;-87
2022/09/13 01:36:00;;;;;;;2.67;2.47;;;13.60;99.90;;;;;;4999344;28;20210;-87
2022/09/13 01:38:46;;;;;;;4.50;2.50;;;13.60;99.90;;;;;;4998835;28;20185;-88
2022/09/13 01:41:49;;;;;;;2.97;2.30;;;13.60;99.90;;;;;;4999403;28;20166;-87
2022/09/13 01:44:59;;;;;;;2.83;2.60;;;13.50;99.90;;;;;;4999580;28;20205;-88
2022/09/13 01:47:57;;;;;;;5.50;3.27;;;13.40;99.90;;;;;;4921239;29;20209;-87
2022/09/13 01:50:36;;;;;;;3.87;3.40;;;13.40;99.90;;;;;;4921705;29;20182;-89
2022/09/13 01:53:24;;;;;;;3.90;2.87;;;13.30;99.90;;;;;;4981388;28;20210;-88
2022/09/13 01:55:58;;;;;;;3.30;3.00;;;13.30;99.90;;;;;;4999061;28;20248;-87
2022/09/13 01:58:36;;;;;;;4.53;3.50;;;13.30;99.90;;;;;;4999049;28;20190;-87
2022/09/13 02:01:18;;;;;;;5.77;3.20;;;13.20;99.90;;;;;;4999147;28;20189;-88
2022/09/13 02:03:59;;;;;;;5.17;2.70;;;13.20;99.90;;;;;;4995758;28;20245;-88
2022/09/13 02:07:01;;;;;;;4.33;3.23;;;13.20;99.90;;;;;;4978218;28;20181;-88
2022/09/13 02:09:30;;;;;;;6.10;3.20;;;13.20;99.90;;;;;;4995811;28;20258;-88
2022/09/13 02:12:02;;;;;;;3.97;3.20;;;13.20;99.90;;;;;;5013367;28;20185;-87
2022/09/13 02:14:34;;;;;;;3.30;3.00;;;13.00;99.90;;;;;;5012369;28;20206;-88
2022/09/13 02:17:11;;;;;;;3.20;2.90;;;13.00;99.90;;;;;;5012027;28;20170;-87
2022/09/13 02:19:53;;;;;;;3.30;2.97;;;13.00;99.90;;;;;;5012849;28;20181;-87
2022/09/13 02:22:30;;;;;;;7.53;3.37;;;13.00;99.90;;;;;;5012566;28;20189;-87
2022/09/13 02:25:08;;;;;;;3.33;3.03;;;12.90;99.90;;;;;;4995721;28;20205;-87
2022/09/13 02:27:37;;;;;;;3.20;2.90;;;13.00;99.90;;;;;;4995231;28;20229;-88
2022/09/13 02:30:07;;;;;;;2.93;2.67;;;13.00;99.90;;;;;;4995337;28;20426;-88
2022/09/13 02:32:44;;;;;;;5.43;3.10;;;13.10;99.90;;;;;;4995901;28;20214;-88
2022/09/13 02:35:13;;;;;;;2.90;2.70;;;13.20;99.90;;;;;;4996044;28;20195;-87
2022/09/13 02:37:44;;;;;;;3.23;2.93;;;13.20;99.90;;;;;;5006671;28;20189;-88
2022/09/13 02:40:20;;;;;;;3.90;3.17;;;13.10;99.90;;;;;;5001208;28;20178;-87
2022/09/13 02:42:53;;;;;;;4.30;3.30;;;13.10;99.90;;;;;;4997213;28;20186;-88
2022/09/13 02:45:22;;;;;;;3.33;3.00;;;13.10;99.90;;;;;;4985675;28;20206;-88
2022/09/13 02:48:00;;;;;;;3.03;2.60;;;13.10;99.90;;;;;;4998047;28;20267;-87
2022/09/13 02:50:41;;;;;;;3.97;2.80;;;13.10;99.90;;;;;;4999403;28;20642;-88
2022/09/13 02:53:22;;;;;;;3.27;2.27;;;13.10;99.90;;;;;;4982769;28;20266;-87
2022/09/13 02:56:26;;;;;;;2.60;2.40;;;13.10;99.90;;;;;;4982749;28;20226;-87
2022/09/13 02:59:01;;;;;;;2.87;2.63;;;13.10;99.90;;;;;;5001036;28;20182;-88
2022/09/13 03:01:27;;;;;;;2.90;2.70;;;13.00;99.90;;;;;;5002235;28;20615;-87
2022/09/13 03:03:53;;;;;;;3.50;2.80;;;12.90;99.90;;;;;;5002512;28;20186;-87
2022/09/13 03:06:27;;;;;;;3.67;2.87;;;12.90;99.90;;;;;;5002766;28;20515;-88
2022/09/13 03:08:57;;;;;;;3.60;2.90;;;12.80;99.90;;;;;;5002183;28;20269;-88
2022/09/13 03:11:42;;;;;;;3.43;3.13;;;12.80;99.90;;;;;;5002026;28;20174;-88
2022/09/13 03:14:19;;;;;;;3.63;2.73;;;12.90;99.90;;;;;;4997057;28;20206;-88
2022/09/13 03:17:00;;;;;;;3.77;3.10;;;12.90;99.90;;;;;;4998548;28;20177;-88
2022/09/13 03:20:03;;;;;;;3.10;2.67;;;13.00;99.90;;;;;;4998635;28;20168;-87
2022/09/13 03:23:17;;;;;;;4.20;3.23;;;12.90;99.90;;;;;;4957676;28;20191;-87
2022/09/13 03:25:54;;;;;;;4.13;3.30;;;13.00;99.90;;;;;;4975490;28;20258;-87
2022/09/13 03:28:39;;;;;;;3.67;3.00;;;12.90;99.90;;;;;;4982284;28;20221;-87
2022/09/13 03:31:17;;;;;;;3.70;2.97;;;12.90;99.90;;;;;;4982250;28;20187;-87
2022/09/13 03:33:50;;;;;;;2.93;2.73;;;12.80;99.90;;;;;;4998584;28;20236;-87
2022/09/13 03:36:35;;;;;;;3.23;2.93;;;12.70;99.90;;;;;;4982492;28;20560;-87
2022/09/13 03:39:23;;;;;;;4.17;2.87;;;12.60;99.90;;;;;;5010941;28;20590;-87
2022/09/13 03:41:56;;;;;;;2.83;2.60;;;12.50;99.90;;;;;;5017943;28;20623;-88
2022/09/13 03:44:24;;;;;;;2.77;2.57;;;12.50;99.90;;;;;;5000924;28;20714;-87
2022/09/13 03:46:56;;;;;;;3.87;2.63;;;12.50;99.90;;;;;;5001128;28;20232;-87
2022/09/13 03:49:24;;;;;;;3.40;2.80;;;12.50;99.90;;;;;;4981844;28;20167;-87
2022/09/13 03:51:51;;;;;;;3.90;2.80;;;12.50;99.90;;;;;;4998117;28;20240;-87
2022/09/13 03:54:31;;;;;;;3.10;2.80;;;12.40;99.90;;;;;;4981302;28;20199;-88
2022/09/13 03:57:21;;;;;;;3.03;2.67;;;12.50;99.90;;;;;;4981329;28;20240;-88
2022/09/13 03:59:51;;;;;;;4.57;2.63;;;12.40;99.90;;;;;;4981395;28;20202;-87
2022/09/13 04:02:36;;;;;;;3.13;2.87;;;12.40;99.90;;;;;;4997416;28;20179;-87
2022/09/13 04:05:01;;;;;;;4.20;2.77;;;12.40;99.90;;;;;;4981344;28;20202;-87
2022/09/13 04:07:27;;;;;;;2.70;2.50;;;12.40;99.90;;;;;;4995732;28;20213;-87
2022/09/13 04:09:53;;;;;;;2.87;2.60;;;12.30;99.90;;;;;;4997767;28;20179;-87
2022/09/13 04:12:19;;;;;;;3.40;2.80;;;12.30;99.90;;;;;;4997640;28;20178;-87
2022/09/13 04:15:17;;;;;;;4.77;2.80;;;12.40;99.90;;;;;;5019139;28;20227;-87
2022/09/13 04:17:43;;;;;;;3.20;2.90;;;12.30;99.90;;;;;;5013182;28;20186;-87
2022/09/13 04:20:43;;;;;;;3.63;3.30;;;12.20;99.90;;;;;;5000511;28;20518;-87
2022/09/13 04:23:09;;;;;;;5.53;3.87;;;12.30;99.90;;;;;;5033333;28;20179;-87
2022/09/13 04:25:39;;;;;;;7.40;4.33;;;12.30;99.90;;;;;;5015104;28;20193;-87
2022/09/13 04:28:05;;;;;;;5.47;4.10;;;12.20;99.90;;;;;;5001073;28;20197;-87
2022/09/13 04:30:31;;;;;;;6.83;3.80;;;12.20;99.90;;;;;;4997078;28;20230;-80
2022/09/13 04:32:58;;;;;;;5.53;3.67;;;12.20;99.90;;;;;;5037838;28;20169;-87
2022/09/13 04:35:25;;;;;;;5.67;3.50;;;12.20;99.90;;;;;;4998749;28;20201;-87
2022/09/13 04:37:54;;;;;;;3.90;3.30;;;12.10;99.90;;;;;;4997269;28;20203;-87
2022/09/13 04:40:20;;;;;;;5.13;3.27;;;12.00;99.90;;;;;;4981364;28;20187;-87
2022/09/13 04:42:46;;;;;;;4.60;3.50;;;12.00;99.90;;;;;;5004813;28;20253;-87
2022/09/13 04:45:12;;;;;;;3.77;3.00;;;12.00;99.90;;;;;;5000500;28;20242;-87
2022/09/13 04:47:38;;;;;;;7.10;3.40;;;12.10;99.90;;;;;;5006349;28;20216;-87
2022/09/13 04:50:04;;;;;;;4.50;3.40;;;12.10;99.90;;;;;;5019710;28;20183;-87
2022/09/13 04:52:30;;;;;;;3.93;3.53;;;12.10;99.90;;;;;;5036320;28;20186;-87
2022/09/13 04:55:15;;;;;;;3.50;3.10;;;12.10;99.90;;;;;;5019710;28;20295;-87
2022/09/13 04:57:44;;;;;;;3.53;3.23;;;12.10;99.90;;;;;;5019406;28;20256;-87
2022/09/13 05:00:11;;;;;;;4.10;3.70;;;12.20;99.90;;;;;;5036157;28;20180;-87
2022/09/13 05:02:37;;;;;;;3.80;3.20;;;12.20;99.90;;;;;;5019180;28;20181;-87
2022/09/13 05:05:03;;;;;;;3.63;3.13;;;12.30;99.90;;;;;;5019901;28;20211;-87
2022/09/13 05:07:29;;;;;;;4.63;3.33;;;12.30;99.90;;;;;;5007679;28;20216;-87
2022/09/13 05:09:55;;;;;;;4.67;3.43;;;12.30;99.90;;;;;;4999999;28;20181;-87
2022/09/13 05:12:21;;;;;;;6.43;3.73;;;12.30;99.90;;;;;;5000078;28;20177;-87
2022/09/13 05:14:47;;;;;;;7.20;3.37;;;12.40;99.90;;;;;;4999696;28;20201;-87
2022/09/13 05:17:13;;;;;;;3.40;3.00;;;12.40;99.90;;;;;;4999566;28;20197;-87
2022/09/13 05:19:38;;;;;;;7.73;3.43;;;12.40;99.90;;;;;;4999877;28;20185;-87
2022/09/13 05:22:04;;;;;;;4.40;3.23;;;12.40;99.90;;;;;;5016035;28;20189;-87
2022/09/13 05:24:30;;;;;;;3.40;2.80;;;12.40;99.90;;;;;;5016233;28;20197;-87
2022/09/13 05:26:56;;;;;;;3.17;2.87;;;12.30;99.90;;;;;;4999767;28;20218;-87
2022/09/13 05:29:22;;;;;;;4.03;3.40;;;12.30;99.90;;;;;;5003867;28;20275;-88
2022/09/13 05:31:47;;;;;;;6.37;3.47;;;12.20;99.90;;;;;;4990887;28;20256;-88
2022/09/13 05:34:16;;;;;;;5.13;2.90;;;12.20;99.90;;;;;;5001498;28;20235;-87
2022/09/13 05:36:43;;;;;;;3.60;3.30;;;12.20;99.90;;;;;;5014005;28;20170;-87
2022/09/13 05:39:16;;;;;;;3.77;3.37;;;12.30;99.90;;;;;;5014145;28;20173;-88
2022/09/13 05:41:48;;;;;;;4.07;3.70;;;12.40;99.90;;;;;;5009120;28;20182;-88
2022/09/13 05:44:14;;;;;;;3.70;3.40;;;12.40;99.90;;;;;;5002953;28;20290;-89
2022/09/13 05:46:41;;;;;;;3.60;3.30;;;12.50;99.90;;;;;;5001991;28;20288;-88
2022/09/13 05:49:07;;;;;;;4.23;3.43;;;12.50;99.90;;;;;;5004436;28;20177;-88
2022/09/13 05:51:33;;;;;;;8.17;3.70;;;12.60;99.90;;;;;;5020466;28;20177;-88
2022/09/13 05:53:59;;;;;;;4.87;4.40;;;12.60;99.90;;;;;;4998856;28;20220;-87
2022/09/13 05:56:30;;;;;;;5.10;4.10;;;12.70;99.90;;;;;;5022057;28;20209;-88
2022/09/13 05:58:57;;;;;;;5.30;4.10;;;12.80;99.90;;;;;;5001529;28;20181;-88
2022/09/13 06:01:27;;;;;;;4.10;3.47;;;12.90;99.90;;;;;;5014616;28;20182;-87
2022/09/13 06:03:56;;;;;;;6.87;3.60;;;13.00;99.90;;;;;;5004009;28;20181;-87
2022/09/13 06:06:23;;;;;;;5.10;3.50;;;13.20;99.90;;;;;;5009994;28;20182;-87
2022/09/13 06:08:56;;;;;;;5.10;3.60;;;13.30;99.90;;;;;;5005578;28;20178;-87
2022/09/13 06:11:24;;;;;;;4.70;3.60;;;13.40;99.90;;;;;;5000967;28;20662;-88
2022/09/13 06:13:57;;;;;;;4.83;3.50;;;13.40;99.90;;;;;;5006944;28;20189;-88
2022/09/13 06:16:23;;;;;;;4.00;3.60;;;13.50;99.90;;;;;;4997651;28;20182;-88
2022/09/13 06:18:49;;;;;;;3.87;3.53;;;13.50;99.90;;;;;;5024927;28;20235;-87
2022/09/13 06:21:18;;;;;;;3.80;3.40;;;13.60;99.90;;;;;;5002657;28;20205;-87
2022/09/13 06:23:49;;;;;;;3.67;3.30;;;13.50;99.90;;;;;;5016120;28;20178;-87
2022/09/13 06:26:17;;;;;;;3.93;3.50;;;13.50;99.90;;;;;;5019214;28;20183;-87
2022/09/13 06:28:51;;;;;;;3.63;3.33;;;13.60;99.90;;;;;;5010233;28;20710;-88
2022/09/13 06:31:37;;;;;;;4.33;3.60;;;13.70;99.90;;;;;;5008427;28;20190;-88
2022/09/13 06:34:04;;;;;;;4.37;3.50;;;13.70;99.90;;;;;;5024000;28;20198;-87
2022/09/13 06:36:30;;;;;;;3.90;3.33;;;13.70;99.90;;;;;;5017041;28;20175;-87
2022/09/13 06:38:59;;;;;;;4.17;3.73;;;13.70;99.90;;;;;;5011312;28;20182;-88
2022/09/13 06:41:26;;;;;;;5.20;3.80;;;13.80;99.90;;;;;;5009845;28;20201;-87
2022/09/13 06:43:57;;;;;;;5.17;3.43;;;13.80;99.90;;;;;;5035972;28;20187;-82
2022/09/13 06:46:24;;;;;;;3.50;3.20;;;14.00;99.90;;;;;;5034673;28;20218;-82
2022/09/13 06:48:49;;;;;;;3.43;2.90;;;14.10;99.90;;;;;;5007292;28;20179;-82
2022/09/13 06:51:18;;;;;;;3.10;2.70;;;14.20;99.90;;;;;;4998691;28;20178;-82
2022/09/13 06:53:45;;;;;;;3.70;3.17;;;14.30;99.90;;;;;;5008910;28;20178;-82
2022/09/13 06:56:19;;;;;;;3.53;3.23;;;14.40;99.90;;;;;;5023018;28;20243;-83
2022/09/13 06:58:55;;;;;;;3.43;3.10;;;14.40;99.90;;;;;;5020301;28;20220;-92
2022/09/13 07:01:23;;;;;;;4.07;2.97;;;14.60;99.90;;;;;;5001655;28;20183;-92
2022/09/13 07:04:07;;;;;;;3.93;3.53;;;14.60;99.90;;;;;;5001833;28;20174;-92
2022/09/13 07:06:36;;;;;;;4.80;3.30;;;14.70;99.90;;;;;;5005039;28;20209;-91
2022/09/13 07:09:05;;;;;;;4.27;3.10;;;14.80;99.90;;;;;;5022008;28;20178;-92
2022/09/13 07:11:37;;;;;;;3.30;3.00;;;14.90;99.90;;;;;;5026081;28;20186;-88
2022/09/13 07:14:05;;;;;;;3.27;2.97;;;15.00;99.90;;;;;;5021767;28;20259;-87
2022/09/13 07:16:33;;;;;;;3.40;3.10;;;15.10;99.90;;;;;;5021664;28;20185;-88
2022/09/13 07:19:01;;;;;;;3.63;3.13;;;15.30;99.90;;;;;;5021249;28;20178;-87
2022/09/13 07:21:28;;;;;;;4.90;3.07;;;15.40;99.90;;;;;;5021629;28;20178;-87
2022/09/13 07:23:55;;;;;;;4.70;2.90;;;15.60;99.90;;;;;;5021092;28;20182;-87
2022/09/13 07:26:22;;;;;;;3.80;3.40;;;15.70;99.90;;;;;;5008627;28;20669;-87
2022/09/13 07:28:51;;;;;;;4.30;3.00;;;15.80;99.90;;;;;;4999384;28;20182;-87
2022/09/13 07:31:21;;;;;;;4.60;3.30;;;15.90;99.90;;;;;;5004938;28;20198;-87
2022/09/13 07:33:59;;;;;;;4.17;2.90;;;16.00;99.90;;;;;;5006829;28;20177;-87
2022/09/13 07:36:26;;;;;;;5.30;3.07;;;16.10;99.90;;;;;;5005306;28;20186;-87
2022/09/13 07:38:52;;;;;;;4.70;3.40;;;16.20;99.90;;;;;;5004764;28;20182;-88
2022/09/13 07:41:20;;;;;;;3.53;2.93;;;16.30;99.90;;;;;;5010007;28;20650;-87
2022/09/13 07:43:46;;;;;;;4.70;2.93;;;16.40;99.90;;;;;;5002725;28;20182;-87
2022/09/13 07:46:16;;;;;;;4.13;2.87;;;16.40;99.90;;;;;;5007403;28;20194;-87
2022/09/13 07:48:44;;;;;;;5.18;3.13;;;16.60;99.90;;;;;;5002117;28;20210;-87
2022/09/13 07:51:14;;;;;;;6.93;3.28;;;16.70;99.90;;;;;;5002467;28;20179;-87
2022/09/13 07:53:43;;;;;;;4.43;2.97;;;16.90;99.90;;;;;;5019096;28;20193;-87
2022/09/13 07:56:13;;;;;;;7.50;3.33;;;17.00;99.90;;;;;;5021167;28;20179;-88
2022/09/13 07:58:41;;;;;;;3.00;2.70;;;17.10;99.90;;;;;;5003489;28;20186;-87
2022/09/13 08:01:09;;;;;;;3.47;2.63;;;17.20;99.90;;;;;;5019000;28;20309;-87
2022/09/13 08:03:36;;;;;;;4.95;2.90;;;17.40;99.90;;;;;;5021190;28;20183;-87
2022/09/13 08:06:03;;;;;;;2.90;2.70;;;17.50;99.90;;;;;;5000410;28;20186;-88
2022/09/13 08:08:29;;;;;;;3.38;3.08;;;17.60;99.90;;;;;;5001891;28;20199;-87
2022/09/13 08:10:56;;;;;;;3.92;2.88;;;17.80;99.90;;;;;;5027319;28;20183;-88
2022/09/13 08:13:22;;;;;;;3.67;3.10;;;17.90;99.90;;;;;;5019967;28;20193;-87
2022/09/13 08:15:48;;;;;;;3.85;3.10;;;17.90;99.90;;;;;;5005794;28;20210;-88
2022/09/13 08:18:16;;;;;;;7.82;3.40;;;18.00;99.90;;;;;;5006270;28;20205;-87
2022/09/13 08:20:42;;;;;;;4.45;2.67;;;18.10;99.90;;;;;;5005693;28;20193;-87
2022/09/13 08:23:09;;;;;;;3.97;2.78;;;18.30;99.90;;;;;;4999605;28;20184;-87
2022/09/13 08:25:37;;;;;;;3.47;2.65;;;18.40;99.90;;;;;;5001080;28;20202;-87
2022/09/13 08:28:08;;;;;;;3.20;2.90;;;18.60;99.90;;;;;;5003621;28;20286;-83
2022/09/13 08:30:35;;;;;;;4.28;2.80;;;18.70;99.90;;;;;;5002870;28;20551;-85
2022/09/13 08:33:05;;;;;;;3.72;2.60;;;18.90;99.90;;;;;;5002732;28;20721;-86
2022/09/13 08:35:32;;;;;;;3.03;2.45;;;19.00;99.90;;;;;;5000310;28;20256;-87
2022/09/13 08:38:06;;;;;;;3.90;2.50;;;19.10;99.90;;;;;;4996200;28;20214;-87
2022/09/13 08:40:40;;;;;;;4.07;2.28;;;19.30;99.90;;;;;;5011355;28;20226;-87
2022/09/13 08:43:36;;;;;;;2.47;2.22;;;19.50;99.90;;;;;;4999880;28;20174;-87
2022/09/13 08:46:23;;;;;;;6.00;2.25;;;19.70;99.90;;;;;;4973086;28;20191;-87
2022/09/13 08:48:54;;;;;;;2.40;2.10;;;20.00;99.90;;;;;;4993950;28;20190;-87
2022/09/13 08:51:50;;;;;;;2.47;2.20;;;20.10;99.90;;;;;;4997784;28;20182;-87
2022/09/13 08:54:19;;;;;;;2.90;2.00;;;20.30;99.90;;;;;;4993552;28;20199;-87
2022/09/13 08:56:59;;;;;;;2.42;2.10;;;20.50;99.90;;;;;;4989071;28;20199;-87
2022/09/13 08:59:28;;;;;;;2.92;1.90;;;20.70;99.90;;;;;;4996683;28;20254;-87
2022/09/13 09:02:03;;;;;;;3.28;2.20;;;20.80;99.90;;;;;;4999390;28;20240;-88
2022/09/13 09:04:37;;;;;;;2.30;2.10;;;20.90;99.90;;;;;;4997804;28;20213;-87
2022/09/13 09:07:22;;;;;;;3.63;1.95;;;21.20;99.90;;;;;;5007839;28;20202;-87
2022/09/13 09:10:23;;;;;;;2.63;1.77;;;21.30;99.90;;;;;;4995533;28;20183;-87
2022/09/13 09:13:05;;;;;;;3.83;1.95;;;21.50;99.90;;;;;;4977981;28;20276;-87
2022/09/13 09:15:45;;;;;;;2.15;1.73;;;21.60;99.90;;;;;;4978407;28;20226;-88
2022/09/13 09:18:45;;;;;;;4.13;2.08;;;21.70;99.90;;;;;;4990640;28;20191;-87
2022/09/13 09:21:27;;;;;;;2.45;1.80;;;21.90;99.90;;;;;;4994683;28;20335;-87
2022/09/13 09:23:58;;;;;;;3.42;2.10;;;22.10;99.90;;;;;;4997025;28;20190;-87
2022/09/13 09:26:33;;;;;;;3.13;2.10;;;22.30;99.90;;;;;;4997408;28;20277;-87
2022/09/13 09:29:20;;;;;;;3.67;2.00;;;22.40;99.90;;;;;;4997513;28;20182;-87
2022/09/13 09:32:22;;;;;;;4.22;1.88;;;22.60;99.90;;;;;;4997711;28;20202;-87
2022/09/13 09:35:26;;;;;;;2.33;1.88;;;22.70;99.90;;;;;;4997254;28;20202;-87
2022/09/13 09:38:13;;;;;;;2.30;1.80;;;22.60;99.90;;;;;;5002091;28;20176;-87
2022/09/13 09:40:40;;;;;;;2.85;2.20;;;22.80;99.90;;;;;;5010674;28;20186;-88
2022/09/13 09:43:34;;;;;;;3.10;1.90;;;22.90;99.90;;;;;;4996612;28;20190;-88
2022/09/13 09:46:02;;;;;;;2.05;1.95;;;23.10;99.90;;;;;;4997666;28;20281;-87
2022/09/13 09:48:47;;;;;;;2.85;1.70;;;23.20;99.90;;;;;;4996748;28;20237;-87
2022/09/13 09:51:27;;;;;;;2.35;2.00;;;23.30;99.90;;;;;;4996745;28;20190;-87
2022/09/13 09:54:01;;;;;;;2.95;1.88;;;23.50;99.90;;;;;;5013322;28;20178;-87
2022/09/13 09:56:54;;;;;;;2.70;2.08;;;23.60;99.90;;;;;;4998448;28;20205;-87
2022/09/13 09:59:36;;;;;;;1.90;1.67;;;23.70;99.90;;;;;;4999040;28;20197;-88
2022/09/13 10:02:17;;;;;;;1.92;1.25;;;23.90;99.90;;;;;;4998925;28;20178;-88
2022/09/13 10:05:05;;;;;;;1.10;1.10;;;24.00;99.90;;;;;;5009422;28;20198;-88
2022/09/13 10:07:34;;;;;;;1.20;1.10;;;24.20;99.90;;;;;;5005105;28;20241;-88
2022/09/13 10:10:21;;;;;;;1.52;1.40;;;24.40;99.90;;;;;;4980888;28;20292;-87
2022/09/13 10:12:54;;;;;;;1.58;1.30;;;24.70;99.90;;;;;;4995807;28;20171;-87
2022/09/13 10:15:25;;;;;;;1.85;1.10;;;24.90;99.90;;;;;;4996163;28;20225;-87
2022/09/13 10:18:13;;;;;;;3.15;0.90;;;25.00;99.90;;;;;;4995756;28;20175;-87
2022/09/13 10:21:23;;;;;;;1.08;0.80;;;25.20;99.90;;;;;;4996386;28;20262;-88
2022/09/13 10:24:24;;;;;;;0.93;0.77;;;25.40;99.90;;;;;;4972843;28;20198;-87
2022/09/13 10:26:50;;;;;;;1.83;0.90;;;25.60;99.90;;;;;;4950850;28;20225;-88
2022/09/13 10:29:16;;;;;;;0.82;0.82;;;25.70;99.90;;;;;;4999210;28;20186;-88
2022/09/13 10:31:45;;;;;;;0.70;0.70;;;25.90;99.90;;;;;;4999287;28;20197;-88
2022/09/13 10:34:30;;;;;;;0.90;0.70;;;26.00;99.90;;;;;;4999041;28;20222;-88
2022/09/13 10:37:04;;;;;;;1.98;0.88;;;26.20;99.90;;;;;;5004048;28;20182;-88
2022/09/13 10:39:33;;;;;;;0.80;0.80;;;26.30;99.90;;;;;;5008319;28;20173;-88
2022/09/13 10:42:08;;;;;;;1.90;1.08;;;26.40;99.90;;;;;;5017984;28;20210;-88
2022/09/13 10:44:44;;;;;;;1.50;1.10;;;26.50;99.90;;;;;;5018594;28;20251;-88
2022/09/13 10:47:17;;;;;;;1.08;0.82;;;26.60;99.90;;;;;;5018446;28;20225;-88
2022/09/13 10:49:47;;;;;;;1.60;0.90;;;26.70;99.90;;;;;;5019005;28;20170;-88
2022/09/13 10:52:30;;;;;;;1.08;0.80;;;26.70;99.90;;;;;;5018618;28;20201;-88
2022/09/13 10:55:18;;;;;;;0.90;0.90;;;26.60;99.90;;;;;;5018524;28;20208;-88
2022/09/13 10:58:04;;;;;;;1.95;0.82;;;26.70;99.90;;;;;;5006350;28;20186;-88
2022/09/13 11:01:17;;;;;;;0.90;0.90;;;26.70;99.90;;;;;;4998845;28;20190;-88
2022/09/13 11:03:58;;;;;;;2.80;0.90;;;26.60;99.90;;;;;;5003337;28;20187;-88
2022/09/13 11:06:32;;;;;;;2.28;0.93;;;26.50;99.90;;;;;;5011733;28;20284;-88
2022/09/13 11:09:16;;;;;;;4.03;1.27;;;26.60;99.90;;;;;;5002523;28;20252;-88
2022/09/13 11:12:19;;;;;;;1.58;1.10;;;26.50;99.90;;;;;;5015737;28;20174;-88
2022/09/13 11:15:22;;;;;;;2.50;1.35;;;26.50;99.90;;;;;;5005244;28;20301;-89
2022/09/13 11:18:18;;;;;;;1.13;0.88;;;26.40;99.90;;;;;;5006707;28;20182;-88
2022/09/13 11:21:30;;;;;;;3.65;1.10;;;26.60;99.90;;;;;;5009341;28;20174;-88
2022/09/13 11:24:20;;;;;;;1.63;0.98;;;26.90;99.90;;;;;;4988628;28;20341;-88
2022/09/13 11:27:08;;;;;;;2.15;0.90;;;27.10;99.90;;;;;;5008289;28;20270;-88
2022/09/13 11:29:47;;;;;;;1.73;0.98;;;27.40;99.90;;;;;;5013263;28;20206;-88
2022/09/13 11:32:33;;;;;;;2.60;1.10;;;27.50;99.90;;;;;;5008484;28;20270;-88
2022/09/13 11:35:33;;;;;;;1.23;1.10;;;27.90;99.90;;;;;;5004609;28;20195;-88
2022/09/13 11:38:00;;;;;;;1.00;0.90;;;28.00;99.90;;;;;;4996768;28;20725;-92
2022/09/13 11:40:34;;;;;;;1.50;1.10;;;28.20;99.90;;;;;;5006280;28;20256;-88
2022/09/13 11:43:32;;;;;;;1.17;0.90;;;28.30;99.90;;;;;;5008760;28;20170;-89
2022/09/13 11:46:16;;;;;;;1.00;0.90;;;28.50;99.90;;;;;;5006585;28;20207;-85
2022/09/13 11:48:55;;;;;;;1.38;0.90;;;28.70;99.90;;;;;;5001785;28;20225;-85
2022/09/13 11:51:44;;;;;;;1.63;0.90;;;28.80;99.90;;;;;;5022490;28;20175;-85
2022/09/13 11:54:37;;;;;;;1.63;1.00;;;28.70;99.90;;;;;;5010649;28;20276;-85
2022/09/13 11:57:11;;;;;;;0.70;0.70;;;28.50;99.90;;;;;;5003443;28;20190;-86
2022/09/13 11:59:40;;;;;;;2.03;0.95;;;28.30;99.90;;;;;;5023157;28;20167;-85
2022/09/13 12:02:30;;;;;;;0.70;0.70;;;28.30;99.90;;;;;;4996828;28;20225;-85
2022/09/13 12:05:06;;;;;;;0.95;0.60;;;28.30;99.60;;;;;;5008040;28;20247;-85
2022/09/13 12:07:52;;;;;;;1.27;0.85;;;28.30;96.80;;;;;;5020267;28;20255;-84
2022/09/13 12:10:41;;;;;;;0.73;0.73;;;28.40;96.80;;;;;;5017022;28;20189;-84
2022/09/13 12:13:13;;;;;;;0.60;0.60;;;28.50;95.50;;;;;;4981234;28;20179;-85
2022/09/13 12:15:42;;;;;;;0.50;0.50;;;28.70;94.70;;;;;;4981042;28;20210;-85
2022/09/13 12:18:09;;;;;;;2.42;0.80;;;28.80;93.40;;;;;;4981369;28;20183;-85
2022/09/13 12:20:54;;;;;;;3.80;1.00;;;28.90;93.70;;;;;;5005455;28;20228;-85
2022/09/13 12:23:30;;;;;;;1.40;0.70;;;29.00;93.50;;;;;;5002469;28;20262;-85
2022/09/13 12:26:13;;;;;;;0.65;0.65;;;28.80;92.60;;;;;;4997737;28;20224;-84
2022/09/13 12:28:48;;;;;;;0.73;0.70;;;28.60;93.10;;;;;;4991930;28;20250;-85
2022/09/13 12:31:21;;;;;;;1.23;0.57;;;28.60;92.90;;;;;;5008870;28;20193;-84
2022/09/13 12:33:54;;;;;;;1.17;0.40;;;28.50;92.40;;;;;;4996354;28;20221;-84
2022/09/13 12:36:27;;;;;;;0.73;0.50;;;28.40;91.50;;;;;;4982535;28;20230;-84
2022/09/13 12:39:13;;;;;;;0.50;0.50;;;28.40;91.50;;;;;;4994698;28;20179;-84
2022/09/13 12:42:12;;;;;;;1.50;0.68;;;28.30;91.80;;;;;;5007046;28;20655;-84
2022/09/13 12:48:25;;;;;;;1.30;0.60;;;28.10;91.30;;;;;;5004355;28;20225;-84
2022/09/13 12:51:13;;;;;;;0.82;0.70;;;28.10;92.80;;;;;;5009903;28;20177;-83
2022/09/13 12:53:49;;;;;;;3.70;0.68;;;28.00;91.60;;;;;;4998397;28;20249;-83
2022/09/13 12:57:00;;;;;;;0.75;0.40;;;27.90;91.60;;;;;;5000515;28;20175;-84
2022/09/13 12:59:41;;;;;;;1.48;0.63;;;27.90;92.00;;;;;;4983506;28;20191;-84
2022/09/13 13:02:33;;;;;;;0.50;0.50;;;28.00;93.20;;;;;;5004083;28;20184;-84
2022/09/13 13:05:24;;;;;;;0.60;0.60;;;28.20;93.10;;;;;;5020761;28;20207;-84
2022/09/13 13:08:20;;;;;;;0.60;0.60;;;28.30;93.50;;;;;;4997521;28;20222;-84
2022/09/13 13:11:23;;;;;;;0.80;0.70;;;28.40;93.80;;;;;;5003739;28;20214;-83
2022/09/13 13:14:08;;;;;;;0.63;0.63;;;28.60;93.30;;;;;;4974766;28;20286;-84
2022/09/13 13:16:37;;;;;;;0.95;0.70;;;28.60;92.10;;;;;;4996282;28;20225;-84
2022/09/13 13:19:23;;;;;;;0.65;0.65;;;28.50;90.80;;;;;;4997754;28;20187;-83
2022/09/13 13:22:22;;;;;;;1.40;0.80;;;28.60;92.90;;;;;;4996385;28;20179;-87
2022/09/13 13:24:48;;;;;;;0.93;0.70;;;28.70;91.60;;;;;;4952188;28;20202;-91
2022/09/13 13:27:38;;;;;;;0.80;0.70;;;28.90;92.20;;;;;;4998390;28;20253;-84
2022/09/13 13:30:41;;;;;;;1.02;0.70;;;29.00;91.30;;;;;;4996424;28;20197;-84
2022/09/13 13:33:20;;;;;;;0.52;0.52;;;29.00;92.00;;;;;;5017680;28;20196;-84
2022/09/13 13:35:47;;;;;;;0.90;0.68;;;29.30;92.60;;;;;;5005086;28;20194;-85
2022/09/13 13:38:22;;;;;;;2.63;0.90;;;29.40;93.30;;;;;;5011811;28;20187;-85